Time;durP1;ratioP1;P1;durP2;ratioP2;P2;SDS_P1;SDS_P2;PMS_P1;PMS_P2;Temp;Humidity;BMP_temperature;BMP_pressure;BME280_temperature;BME280_humidity;BME280_pressure;Samples;Min_cycle;Max_cycle;Signal;HPM_P1;HPM_P2
2024/03/05 00:00:10;;;;;;;41.92;23.67;;;179.80;2252.80;;;;;;5082724;28;20039;-80
2024/03/05 00:02:43;;;;;;;42.10;22.65;;;179.70;2252.80;;;;;;5096745;28;20441;-78
2024/03/05 00:05:15;;;;;;;39.13;22.45;;;179.70;2252.80;;;;;;5074090;28;20052;-78
2024/03/05 00:07:41;;;;;;;42.00;22.13;;;179.70;2252.80;;;;;;5094389;28;20375;-78
2024/03/05 00:10:07;;;;;;;44.03;23.25;;;179.70;2252.80;;;;;;5095098;28;20048;-79
2024/03/05 00:12:34;;;;;;;44.67;22.33;;;179.70;2252.80;;;;;;5074951;28;20047;-77
2024/03/05 00:15:00;;;;;;;37.45;21.33;;;179.70;2252.80;;;;;;5092499;28;20059;-79
2024/03/05 00:17:26;;;;;;;41.47;21.70;;;179.40;2252.80;;;;;;5094563;28;20020;-77
2024/03/05 00:19:53;;;;;;;42.20;22.02;;;179.60;2252.80;;;;;;5090000;28;21617;-80
2024/03/05 00:22:19;;;;;;;36.92;21.80;;;179.50;2252.80;;;;;;5093030;28;20024;-79
2024/03/05 00:24:45;;;;;;;41.92;22.60;;;179.20;2252.80;;;;;;5086070;28;20118;-80
2024/03/05 00:27:11;;;;;;;37.83;21.15;;;179.50;2252.80;;;;;;5071787;28;20469;-81
2024/03/05 00:29:40;;;;;;;39.75;21.35;;;179.40;2252.80;;;;;;5093685;28;20043;-78
2024/03/05 00:32:07;;;;;;;35.17;20.38;;;179.30;2252.80;;;;;;5082946;28;20031;-77
2024/03/05 00:34:32;;;;;;;40.65;20.58;;;179.30;2252.80;;;;;;5082775;28;20048;-79
2024/03/05 00:36:58;;;;;;;41.40;20.50;;;179.20;2252.80;;;;;;5084748;28;20036;-79
2024/03/05 00:39:24;;;;;;;43.55;21.27;;;154.50;2252.80;;;;;;5093180;28;20048;-81
2024/03/05 00:41:50;;;;;;;36.95;20.50;;;;;;;;;;5094077;28;20077;-80
2024/03/05 00:44:16;;;;;;;37.75;20.85;;;;;;;;;;5088590;28;20040;-79
2024/03/05 00:46:45;;;;;;;35.35;20.55;;;;;;;;;;5095119;28;20044;-76
2024/03/05 00:49:11;;;;;;;37.20;19.48;;;;;;;;;;5086370;28;20497;-79
2024/03/05 00:51:37;;;;;;;42.88;20.42;;;;;;;;;;5103675;28;20043;-80
2024/03/05 00:54:03;;;;;;;41.03;20.30;;;;;;;;;;5087215;28;20032;-78
2024/03/05 00:56:29;;;;;;;37.70;20.33;;;;;;;;;;5073840;28;20024;-80
2024/03/05 00:58:56;;;;;;;38.78;22.08;;;;;;;;;;5080039;28;20027;-79
2024/03/05 01:01:22;;;;;;;41.03;22.75;;;;;;;;;;5093114;28;20055;-76
2024/03/05 01:03:48;;;;;;;37.72;21.08;;;154.50;2252.80;;;;;;5072656;28;20024;-77
2024/03/05 01:06:14;;;;;;;38.50;20.98;;;154.20;2252.80;;;;;;5070082;28;20047;-78
2024/03/05 01:08:40;;;;;;;42.78;21.55;;;;;;;;;;5071768;28;20029;-77
2024/03/05 01:11:07;;;;;;;40.33;21.17;;;;;;;;;;5048452;28;20037;-75
2024/03/05 01:13:33;;;;;;;36.08;21.40;;;;;;;;;;5066208;28;20017;-76
2024/03/05 01:16:00;;;;;;;40.63;21.38;;;;;;;;;;5082646;28;20089;-79
2024/03/05 01:18:26;;;;;;;45.60;22.23;;;;;;;;;;5079547;28;20020;-80
2024/03/05 01:20:53;;;;;;;44.13;22.33;;;;;;;;;;5067182;28;20116;-78
2024/03/05 01:23:19;;;;;;;42.20;21.92;;;;;;;;;;5074540;28;20024;-77
2024/03/05 01:25:45;;;;;;;39.50;21.92;;;;;;;;;;5074798;28;20557;-80
2024/03/05 01:28:14;;;;;;;39.42;22.13;;;;;;;;;;5073281;28;20452;-78
2024/03/05 01:30:41;;;;;;;42.38;22.63;;;;;;;;;;5073647;28;20032;-81
2024/03/05 01:33:19;;;;;;;41.45;21.77;;;154.10;2252.80;;;;;;5070878;28;20060;-78
2024/03/05 01:35:47;;;;;;;40.83;22.02;;;153.90;2252.80;;;;;;5084583;28;20040;-80
2024/03/05 01:38:13;;;;;;;42.90;22.80;;;153.80;2252.80;;;;;;5092988;28;20121;-81
2024/03/05 01:40:39;;;;;;;42.03;21.50;;;153.90;2252.80;;;;;;5085744;28;20103;-82
2024/03/05 01:43:05;;;;;;;38.58;21.13;;;153.70;2252.80;;;;;;5095232;28;20020;-81
2024/03/05 01:45:31;;;;;;;45.35;21.98;;;153.70;2252.80;;;;;;5096045;28;20043;-80
2024/03/05 01:47:59;;;;;;;45.83;22.60;;;153.80;2252.80;;;;;;5096569;28;20043;-83
2024/03/05 01:50:25;;;;;;;45.85;23.23;;;153.70;2252.80;;;;;;5079841;28;20034;-76
2024/03/05 01:52:51;;;;;;;44.25;22.70;;;153.60;2252.80;;;;;;5081317;28;20029;-82
2024/03/05 01:55:18;;;;;;;43.03;22.35;;;153.60;2252.80;;;;;;5071315;28;20054;-77
2024/03/05 01:57:48;;;;;;;40.47;22.65;;;153.60;2252.80;;;;;;5074901;28;20017;-80
2024/03/05 02:00:15;;;;;;;40.40;22.08;;;153.60;2252.80;;;;;;5074035;28;20020;-77
2024/03/05 02:02:46;;;;;;;40.53;22.10;;;;;;;;;;5092406;28;20048;-81
2024/03/05 02:05:12;;;;;;;42.90;22.60;;;;;;;;;;5094854;28;20127;-82
2024/03/05 02:07:39;;;;;;;40.67;21.48;;;;;;;;;;5094516;28;20016;-80
2024/03/05 02:10:09;;;;;;;42.83;21.60;;;;;;;;;;5095462;28;20059;-80
2024/03/05 02:12:36;;;;;;;40.70;21.55;;;;;;;;;;5093804;28;20710;-81
2024/03/05 02:15:03;;;;;;;40.65;22.08;;;;;;;;;;5094145;28;20035;-77
2024/03/05 02:17:30;;;;;;;43.55;22.58;;;;;;;;;;5093178;28;20493;-79
2024/03/05 02:19:56;;;;;;;40.65;20.90;;;;;;;;;;5092221;28;20032;-80
2024/03/05 02:22:22;;;;;;;38.25;20.55;;;;;;;;;;5092822;28;20036;-77
2024/03/05 02:24:48;;;;;;;45.15;22.42;;;;;;;;;;5093198;28;20475;-80
2024/03/05 02:27:15;;;;;;;43.60;22.30;;;;;;;;;;5078504;28;20073;-80
2024/03/05 02:29:42;;;;;;;39.10;20.85;;;;;;;;;;5100240;28;20019;-76
2024/03/05 02:32:12;;;;;;;41.38;21.73;;;;;;;;;;5095304;28;20160;-82
2024/03/05 02:34:38;;;;;;;38.30;20.45;;;128.90;2252.80;;;;;;5092089;28;20035;-81
2024/03/05 02:37:04;;;;;;;39.00;21.13;;;128.70;2252.80;;;;;;5086195;28;20092;-78
2024/03/05 02:39:30;;;;;;;39.22;21.88;;;128.50;2252.80;;;;;;5091437;28;20062;-81
2024/03/05 02:41:58;;;;;;;41.38;21.70;;;;;;;;;;5090664;28;20024;-82
2024/03/05 02:44:26;;;;;;;39.65;21.98;;;;;;;;;;5092912;28;20036;-80
2024/03/05 02:46:52;;;;;;;45.95;22.80;;;;;;;;;;5097591;28;20107;-76
2024/03/05 02:49:19;;;;;;;38.28;20.58;;;;;;;;;;5093186;28;20459;-80
2024/03/05 02:51:46;;;;;;;38.80;20.67;;;;;;;;;;5092862;28;20020;-80
2024/03/05 02:54:12;;;;;;;41.33;21.65;;;;;;;;;;5088167;28;20024;-80
2024/03/05 02:56:41;;;;;;;37.50;20.70;;;;;;;;;;5094026;28;20028;-82
2024/03/05 02:59:07;;;;;;;38.70;21.10;;;;;;;;;;5093161;28;20020;-81
2024/03/05 03:01:35;;;;;;;38.40;21.50;;;;;;;;;;5092977;28;20051;-81
2024/03/05 03:04:05;;;;;;;38.30;21.88;;;;;;;;;;5089211;28;20417;-82
2024/03/05 03:06:32;;;;;;;42.15;21.85;;;;;;;;;;5073319;28;20021;-76
2024/03/05 03:08:58;;;;;;;40.35;21.33;;;;;;;;;;5071966;28;20487;-82
2024/03/05 03:11:27;;;;;;;38.63;20.23;;;;;;;;;;5083271;28;20028;-81
2024/03/05 03:13:55;;;;;;;38.45;21.10;;;;;;;;;;5113907;28;20104;-81
2024/03/05 03:16:21;;;;;;;41.33;22.17;;;;;;;;;;5114288;28;20042;-80
2024/03/05 03:18:50;;;;;;;40.60;21.67;;;128.10;2252.80;;;;;;5113371;28;20028;-79
2024/03/05 03:21:16;;;;;;;42.30;21.58;;;128.00;2252.80;;;;;;5114009;28;20092;-81
2024/03/05 03:23:44;;;;;;;39.05;21.27;;;;;;;;;;5113284;28;20462;-77
2024/03/05 03:26:13;;;;;;;41.25;22.15;;;128.30;2252.80;;;;;;5087797;28;20131;-76
2024/03/05 03:28:39;;;;;;;41.65;21.70;;;103.20;2227.20;;;;;;5092270;28;20116;-82
2024/03/05 03:31:08;;;;;;;38.15;21.98;;;103.20;2227.20;;;;;;5075785;28;20055;-76
2024/03/05 03:33:34;;;;;;;41.33;22.60;;;;;;;;;;5093705;28;20846;-76
2024/03/05 03:36:02;;;;;;;39.90;22.48;;;;;;;;;;5073907;28;20021;-79
2024/03/05 03:38:28;;;;;;;41.58;22.65;;;;;;;;;;5073928;28;20020;-81
2024/03/05 03:40:54;;;;;;;42.25;22.30;;;103.30;2227.20;;;;;;5073272;28;20025;-83
2024/03/05 03:43:19;;;;;;;42.03;22.02;;;103.30;2227.20;;;;;;5074936;28;20023;-82
2024/03/05 03:45:46;;;;;;;41.25;21.65;;;103.10;2227.20;;;;;;5081110;28;20038;-76
2024/03/05 03:48:11;;;;;;;46.65;23.10;;;103.10;2227.20;;;;;;5093591;28;20035;-80
2024/03/05 03:50:37;;;;;;;42.22;22.00;;;103.00;2227.20;;;;;;5093874;28;20036;-83
2024/03/05 03:53:06;;;;;;;44.42;22.55;;;103.00;2227.20;;;;;;5094002;28;20028;-75
2024/03/05 03:55:33;;;;;;;43.60;22.05;;;103.00;2227.20;;;;;;5109564;28;20038;-77
2024/03/05 03:57:59;;;;;;;41.60;21.95;;;103.00;2227.20;;;;;;5113869;28;20016;-75
2024/03/05 04:00:25;;;;;;;46.95;22.33;;;102.90;2227.20;;;;;;5116251;28;20027;-76
2024/03/05 04:02:53;;;;;;;40.50;21.33;;;102.90;2227.20;;;;;;5117959;28;20131;-82
2024/03/05 04:05:19;;;;;;;47.60;21.80;;;102.90;2227.20;;;;;;5079834;28;20086;-80
2024/03/05 04:07:45;;;;;;;44.97;22.88;;;102.90;2227.20;;;;;;5076428;28;20025;-81
2024/03/05 04:10:15;;;;;;;41.05;22.33;;;102.90;2227.20;;;;;;5080235;28;20055;-80
2024/03/05 04:12:40;;;;;;;39.40;21.70;;;102.90;2227.20;;;;;;5117224;28;20059;-78
2024/03/05 04:15:12;;;;;;;41.78;22.38;;;102.90;2227.20;;;;;;5117004;28;20024;-81
2024/03/05 04:17:38;;;;;;;41.30;21.92;;;102.90;2227.20;;;;;;5099076;28;20032;-74
2024/03/05 04:20:05;;;;;;;42.25;22.20;;;102.90;2227.20;;;;;;5112012;28;20020;-75
2024/03/05 04:22:37;;;;;;;42.22;21.60;;;102.90;2227.20;;;;;;5085064;28;20058;-82
2024/03/05 04:25:03;;;;;;;43.05;22.00;;;102.90;2227.20;;;;;;5096800;28;20046;-80
2024/03/05 04:27:30;;;;;;;44.13;22.15;;;102.90;2227.20;;;;;;5092025;28;20044;-76
2024/03/05 04:29:59;;;;;;;41.22;22.20;;;102.90;2227.20;;;;;;5116561;28;20159;-78
2024/03/05 04:32:26;;;;;;;41.08;21.83;;;102.90;2227.20;;;;;;5117269;28;20101;-81
2024/03/05 04:35:00;;;;;;;44.90;22.17;;;102.90;2227.20;;;;;;5117503;28;20024;-79
2024/03/05 04:37:30;;;;;;;42.72;21.90;;;103.00;2227.20;;;;;;5115975;28;20039;-76
2024/03/05 04:39:56;;;;;;;42.15;21.35;;;102.90;2227.20;;;;;;5096067;28;20476;-77
2024/03/05 04:42:24;;;;;;;45.38;22.45;;;102.90;2227.20;;;;;;5093054;28;20020;-75
2024/03/05 04:44:51;;;;;;;47.90;22.45;;;102.90;2227.20;;;;;;5101158;28;20072;-76
2024/03/05 04:47:17;;;;;;;43.80;22.40;;;102.90;2227.20;;;;;;5097530;28;20032;-80
2024/03/05 04:49:43;;;;;;;45.50;22.08;;;102.90;2227.20;;;;;;5096518;28;20058;-76
2024/03/05 04:52:10;;;;;;;46.58;24.00;;;102.90;2227.20;;;;;;5096879;28;20028;-81
2024/03/05 04:54:36;;;;;;;40.90;22.33;;;102.90;2227.20;;;;;;5096447;28;20483;-81
2024/03/05 04:57:04;;;;;;;40.63;22.98;;;102.90;2227.20;;;;;;5086360;28;20065;-82
2024/03/05 04:59:29;;;;;;;44.88;22.38;;;102.90;2227.20;;;;;;5095582;28;20028;-81
2024/03/05 05:01:55;;;;;;;49.95;25.27;;;102.90;2227.20;;;;;;5095326;28;20088;-83
2024/03/05 05:04:21;;;;;;;73.65;37.75;;;102.90;2227.20;;;;;;5096429;28;20067;-74
2024/03/05 05:06:46;;;;;;;80.82;42.63;;;102.90;2227.20;;;;;;5095922;28;20103;-81
2024/03/05 05:09:15;;;;;;;68.28;37.20;;;102.90;2227.20;;;;;;5095582;28;20028;-79
2024/03/05 05:11:41;;;;;;;57.72;29.92;;;102.80;2227.20;;;;;;5096111;28;20468;-78
2024/03/05 05:14:10;;;;;;;52.85;26.27;;;102.80;2227.20;;;;;;5093337;28;20023;-80
2024/03/05 05:16:36;;;;;;;47.10;25.20;;;102.80;2227.20;;;;;;5090503;28;20031;-76
2024/03/05 05:19:04;;;;;;;48.95;25.00;;;102.80;2227.20;;;;;;5097737;28;20376;-77
2024/03/05 05:21:30;;;;;;;59.40;27.90;;;102.80;2227.20;;;;;;5093828;28;20128;-76
2024/03/05 05:23:56;;;;;;;83.50;33.83;;;102.90;2227.20;;;;;;5095087;28;20107;-77
2024/03/05 05:26:22;;;;;;;86.50;34.25;;;102.90;2227.20;;;;;;5097496;28;20055;-80
2024/03/05 05:28:50;;;;;;;92.00;34.95;;;103.00;2227.20;;;;;;5116099;28;20019;-75
2024/03/05 05:31:26;;;;;;;98.55;36.17;;;103.00;2227.20;;;;;;5097312;28;20146;-75
2024/03/05 05:33:53;;;;;;;94.40;34.95;;;103.10;2227.20;;;;;;5115558;28;20042;-76
2024/03/05 05:36:18;;;;;;;70.10;28.77;;;103.10;2227.20;;;;;;5115655;28;20039;-77
2024/03/05 05:38:44;;;;;;;63.60;28.83;;;103.10;2227.20;;;;;;5100968;28;20021;-78
2024/03/05 05:41:13;;;;;;;57.75;27.15;;;103.20;2227.20;;;;;;5089001;28;20051;-77
2024/03/05 05:43:40;;;;;;;50.15;25.00;;;128.00;2252.80;;;;;;5077318;28;20024;-76
2024/03/05 05:46:14;;;;;;;53.17;25.40;;;;;;;;;;5074797;28;20119;-76
2024/03/05 05:48:42;;;;;;;45.85;24.52;;;128.80;2252.80;;;;;;5077679;28;20025;-77
2024/03/05 05:51:10;;;;;;;49.47;24.80;;;128.80;2252.80;;;;;;5103429;28;20114;-76
2024/03/05 05:53:39;;;;;;;45.30;22.83;;;;;;;;;;5090661;28;20058;-76
2024/03/05 05:56:05;;;;;;;43.33;22.55;;;;;;;;;;5099528;28;20024;-76
2024/03/05 05:58:33;;;;;;;36.58;20.52;;;205.00;2252.80;;;;;;5102999;28;20462;-78
2024/03/05 06:01:05;;;;;;;38.42;20.77;;;205.60;2252.80;;;;;;5082704;28;20471;-77
2024/03/05 06:03:33;;;;;;;35.20;20.33;;;230.90;2252.80;;;;;;5088734;28;20043;-75
2024/03/05 06:05:59;;;;;;;37.33;20.08;;;231.10;2252.80;;;;;;5093934;28;20036;-76
2024/03/05 06:08:28;;;;;;;37.00;19.70;;;;;;;;;;5088176;28;20082;-76
2024/03/05 06:10:54;;;;;;;37.40;20.33;;;281.60;2278.40;;;;;;5097477;28;20026;-79
2024/03/05 06:13:22;;;;;;;34.80;19.30;;;;;;;;;;5094017;28;20016;-80
2024/03/05 06:15:49;;;;;;;34.00;18.75;;;307.30;2304.00;;;;;;5094367;28;20115;-77
2024/03/05 06:18:15;;;;;;;33.63;19.95;;;308.00;2304.00;;;;;;5086886;28;20144;-77
2024/03/05 06:20:43;;;;;;;37.90;18.95;;;333.30;2329.60;;;;;;5093797;28;20055;-77
2024/03/05 06:23:09;;;;;;;33.78;18.63;;;;;;;;;;5098882;28;20493;-75
2024/03/05 06:25:39;;;;;;;31.58;18.73;;;359.20;2073.60;;;;;;5093005;28;20032;-76
2024/03/05 06:28:08;;;;;;;33.70;19.17;;;384.50;1996.80;;;;;;5112431;28;20161;-78
2024/03/05 06:30:34;;;;;;;37.00;20.77;;;410.10;1894.40;;;;;;5113677;28;20019;-75
2024/03/05 06:33:00;;;;;;;32.45;21.10;;;410.40;1868.80;;;;;;5101725;28;20391;-75
2024/03/05 06:35:31;;;;;;;35.50;20.88;;;;;;;;;;5086591;28;20028;-81
2024/03/05 06:37:57;;;;;;;40.63;22.77;;;460.80;1766.40;;;;;;5082109;28;20107;-79
2024/03/05 06:40:25;;;;;;;37.40;21.85;;;461.20;1715.20;;;;;;5093601;28;20025;-81
2024/03/05 06:43:03;;;;;;;36.92;21.73;;;487.10;1612.80;;;;;;5088187;28;20031;-80
2024/03/05 06:45:30;;;;;;;36.08;22.38;;;512.30;1561.60;;;;;;5093286;28;20039;-82
2024/03/05 06:48:01;;;;;;;34.58;23.20;;;512.40;1536.00;;;;;;5093163;28;20023;-82
2024/03/05 06:50:42;;;;;;;38.30;21.75;;;512.90;1510.40;;;;;;5096373;28;20040;-82
2024/03/05 06:58:41;;;;;;;89.63;43.65;;;564.00;1408.00;;;;;;5084037;28;20387;-82
2024/03/05 07:01:08;;;;;;;65.93;35.08;;;;;;;;;;5100740;28;20050;-82
2024/03/05 07:03:38;;;;;;;55.42;32.53;;;;;;;;;;5113921;28;20026;-80
2024/03/05 07:06:07;;;;;;;52.15;28.88;;;;;;;;;;5108218;28;20419;-81
2024/03/05 07:08:43;;;;;;;44.78;28.42;;;;;;;;;;5089203;28;20055;-82
2024/03/05 07:11:12;;;;;;;39.97;23.45;;;;;;;;;;5113073;28;20114;-80
2024/03/05 07:13:42;;;;;;;41.45;24.20;;;;;;;;;;5098733;28;20024;-81
2024/03/05 07:16:09;;;;;;;42.28;25.75;;;;;;;;;;5086192;28;20048;-81
2024/03/05 07:18:36;;;;;;;41.83;26.27;;;;;;;;;;5099827;28;20019;-81
2024/03/05 07:21:07;;;;;;;40.67;25.08;;;;;;;;;;5110295;28;20062;-80
2024/03/05 07:23:33;;;;;;;40.70;24.30;;;640.00;1228.80;;;;;;5088360;28;20503;-82
2024/03/05 07:25:59;;;;;;;41.80;25.13;;;615.20;1254.40;;;;;;5098506;28;20028;-81
2024/03/05 07:28:28;;;;;;;41.97;27.27;;;;;;;;;;5098964;28;20139;-82
2024/03/05 07:30:54;;;;;;;42.38;26.52;;;615.00;1254.40;;;;;;5091291;28;20055;-79
2024/03/05 07:33:21;;;;;;;44.90;27.85;;;615.30;1228.80;;;;;;5091859;28;20028;-81
2024/03/05 07:35:47;;;;;;;47.92;29.48;;;640.00;1228.80;;;;;;5108609;28;20031;-81
2024/03/05 07:38:14;;;;;;;51.63;32.28;;;;;;;;;;5106137;28;20020;-80
2024/03/05 07:40:41;;;;;;;46.38;28.38;;;640.40;1203.20;;;;;;5093153;28;20028;-81
2024/03/05 07:43:08;;;;;;;49.08;27.90;;;640.20;1280.00;;;;;;5103970;28;20008;-82
2024/03/05 07:45:34;;;;;;;51.67;27.55;;;615.30;1254.40;;;;;;5097087;28;20093;-82
2024/03/05 07:48:00;;;;;;;50.17;29.15;;;615.20;1228.80;;;;;;5093694;28;20024;-81
2024/03/05 07:50:31;;;;;;;53.55;28.90;;;614.70;1280.00;;;;;;5095399;28;20425;-80
2024/03/05 07:52:59;;;;;;;47.70;28.58;;;589.60;1305.60;;;;;;5093358;28;20032;-80
2024/03/05 07:55:26;;;;;;;41.90;25.90;;;589.20;1331.20;;;;;;5092966;28;20493;-82
2024/03/05 07:57:53;;;;;;;40.78;25.75;;;589.50;1305.60;;;;;;5090280;28;20099;-80
2024/03/05 08:00:23;;;;;;;43.50;25.05;;;589.60;1331.20;;;;;;5094100;28;20028;-71
2024/03/05 08:02:54;;;;;;;44.15;26.60;;;589.70;1305.60;;;;;;5076609;28;20542;-74
2024/03/05 08:05:24;;;;;;;36.03;24.25;;;614.60;1305.60;;;;;;5093130;28;20040;-72
2024/03/05 08:07:51;;;;;;;37.88;25.15;;;589.30;1331.20;;;;;;5094753;28;20158;-75
2024/03/05 08:10:18;;;;;;;40.75;24.95;;;;;;;;;;5108200;28;20487;-73
2024/03/05 08:12:45;;;;;;;35.65;23.70;;;538.40;1408.00;;;;;;5102969;28;20101;-73
2024/03/05 08:15:12;;;;;;;32.55;22.08;;;;;;;;;;5094991;28;20542;-72
2024/03/05 08:17:40;;;;;;;33.72;21.63;;;512.50;1510.40;;;;;;5094988;28;20031;-73
2024/03/05 08:20:07;;;;;;;34.40;21.92;;;538.20;1459.20;;;;;;5097459;28;20470;-73
2024/03/05 08:22:34;;;;;;;31.40;21.95;;;538.40;1459.20;;;;;;5073431;28;20035;-75
2024/03/05 08:25:09;;;;;;;34.63;22.25;;;563.50;1433.60;;;;;;5113486;28;20118;-71
2024/03/05 08:27:39;;;;;;;33.47;21.95;;;563.60;1433.60;;;;;;5114828;28;20112;-71
2024/03/05 08:30:10;;;;;;;35.97;22.33;;;563.40;1459.20;;;;;;5105586;28;20026;-70
2024/03/05 08:32:39;;;;;;;32.22;21.95;;;563.50;1459.20;;;;;;5114560;28;20100;-69
2024/03/05 08:35:09;;;;;;;34.38;22.67;;;563.30;1459.20;;;;;;5105367;28;20095;-72
2024/03/05 08:37:35;;;;;;;53.88;31.55;;;538.40;1459.20;;;;;;5092235;28;20025;-71
2024/03/05 08:40:04;;;;;;;68.97;33.85;;;;;;;;;;5084061;28;20031;-72
2024/03/05 08:42:30;;;;;;;45.17;25.73;;;512.00;1561.60;;;;;;5092439;28;20028;-71
2024/03/05 08:44:56;;;;;;;35.97;24.30;;;512.20;1587.20;;;;;;5086275;28;20503;-70
2024/03/05 08:47:22;;;;;;;52.50;33.25;;;512.80;1536.00;;;;;;5085765;28;20021;-69
2024/03/05 08:49:50;;;;;;;34.45;22.08;;;;;;;;;;5083596;28;20043;-71
2024/03/05 08:52:18;;;;;;;35.03;21.25;;;486.80;1638.40;;;;;;5080597;28;20029;-73
2024/03/05 08:54:44;;;;;;;29.88;20.60;;;461.40;1689.60;;;;;;5089268;28;20511;-70
2024/03/05 08:57:10;;;;;;;38.45;23.65;;;487.20;1638.40;;;;;;5064914;28;20085;-72
2024/03/05 08:59:35;;;;;;;29.10;20.38;;;487.20;1587.20;;;;;;5083666;28;20029;-73
2024/03/05 09:02:02;;;;;;;31.13;20.77;;;486.90;1612.80;;;;;;5081039;28;20060;-71
2024/03/05 09:04:31;;;;;;;32.13;20.25;;;512.20;1587.20;;;;;;5060286;28;20554;-69
2024/03/05 09:06:56;;;;;;;29.63;19.48;;;512.60;1587.20;;;;;;5071217;28;20027;-73
2024/03/05 09:09:22;;;;;;;29.98;19.40;;;512.80;1561.60;;;;;;5064647;28;20024;-73
2024/03/05 09:11:48;;;;;;;31.35;19.67;;;537.70;1587.20;;;;;;5074836;28;20367;-74
2024/03/05 09:14:14;;;;;;;31.48;19.52;;;537.80;1536.00;;;;;;5056882;28;20032;-76
2024/03/05 09:16:40;;;;;;;32.55;20.60;;;538.00;1536.00;;;;;;5095120;28;20124;-77
2024/03/05 09:19:06;;;;;;;30.42;19.90;;;537.90;1510.40;;;;;;5095080;28;20031;-76
2024/03/05 09:21:32;;;;;;;28.50;19.63;;;537.90;1510.40;;;;;;5079281;28;20384;-76
2024/03/05 09:24:01;;;;;;;29.42;19.08;;;537.80;1536.00;;;;;;5054618;28;20017;-76
2024/03/05 09:26:29;;;;;;;35.70;21.05;;;563.30;1536.00;;;;;;5054387;28;20024;-76
2024/03/05 09:28:58;;;;;;;31.63;19.73;;;538.10;1561.60;;;;;;5054972;28;20113;-75
2024/03/05 09:31:26;;;;;;;32.20;20.85;;;538.10;1817.60;;;;;;5063202;28;20471;-75
2024/03/05 09:33:53;;;;;;;33.00;21.63;;;537.90;1561.60;;;;;;5074533;28;20033;-76
2024/03/05 09:36:18;;;;;;;30.88;19.80;;;537.70;1536.00;;;;;;5074267;28;20024;-76
2024/03/05 09:38:45;;;;;;;30.13;19.58;;;537.90;1561.60;;;;;;5067063;28;20037;-78
2024/03/05 09:41:12;;;;;;;28.00;19.13;;;538.50;1510.40;;;;;;5068757;28;20149;-77
2024/03/05 09:43:41;;;;;;;31.67;19.90;;;563.30;1484.80;;;;;;5074292;28;20055;-76
2024/03/05 09:46:07;;;;;;;32.05;20.40;;;537.90;1510.40;;;;;;5067607;28;20032;-74
2024/03/05 09:48:38;;;;;;;31.15;20.02;;;487.30;1561.60;;;;;;5055675;28;20028;-77
2024/03/05 09:51:09;;;;;;;35.20;20.98;;;512.30;1587.20;;;;;;5053744;28;20025;-72
2024/03/05 09:53:35;;;;;;;30.30;20.33;;;512.60;1561.60;;;;;;5053940;28;20028;-75
2024/03/05 09:56:04;;;;;;;29.75;19.42;;;512.60;1561.60;;;;;;5053758;28;20033;-75
2024/03/05 09:58:40;;;;;;;27.70;18.27;;;512.70;1561.60;;;;;;5064318;28;20032;-75
2024/03/05 10:01:08;;;;;;;30.70;19.10;;;537.70;1536.00;;;;;;5078718;28;20028;-76
2024/03/05 10:03:38;;;;;;;28.45;20.00;;;512.70;1510.40;;;;;;5091875;28;20028;-77
2024/03/05 10:06:09;;;;;;;31.20;18.92;;;537.60;1587.20;;;;;;5081772;28;20111;-75
2024/03/05 10:08:35;;;;;;;27.92;18.15;;;512.60;1536.00;;;;;;5093556;28;20028;-77
2024/03/05 10:11:03;;;;;;;30.85;19.40;;;512.80;1561.60;;;;;;5093249;28;20374;-77
2024/03/05 10:13:38;;;;;;;29.25;19.15;;;537.70;1536.00;;;;;;5093591;28;20028;-76
2024/03/05 10:16:22;;;;;;;27.00;17.88;;;563.30;1536.00;;;;;;5087205;28;20032;-78
2024/03/05 10:18:49;;;;;;;30.25;18.63;;;564.00;1484.80;;;;;;5093744;28;20039;-75
2024/03/05 10:21:25;;;;;;;29.13;19.02;;;589.20;1459.20;;;;;;5093638;28;20089;-75
2024/03/05 10:24:05;;;;;;;28.20;18.85;;;589.50;1408.00;;;;;;5093162;28;20382;-75
2024/03/05 10:26:32;;;;;;;33.65;23.05;;;589.50;1408.00;;;;;;5089967;28;20039;-75
2024/03/05 10:29:04;;;;;;;31.33;20.83;;;563.80;1484.80;;;;;;5075400;28;20044;-75
2024/03/05 10:31:30;;;;;;;28.10;18.25;;;538.00;1536.00;;;;;;5035797;28;20052;-77
2024/03/05 10:33:57;;;;;;;32.80;19.30;;;538.00;1510.40;;;;;;5033265;28;20025;-77
2024/03/05 10:36:24;;;;;;;27.63;18.55;;;537.70;1561.60;;;;;;5032964;28;20033;-73
2024/03/05 10:38:51;;;;;;;27.88;19.17;;;537.80;1587.20;;;;;;5027369;28;20018;-75
2024/03/05 10:41:27;;;;;;;29.23;19.77;;;537.70;1587.20;;;;;;5032424;28;20056;-75
2024/03/05 10:43:54;;;;;;;31.20;19.88;;;563.20;1536.00;;;;;;5015503;28;20025;-75
2024/03/05 10:46:23;;;;;;;28.30;18.77;;;563.70;1510.40;;;;;;5032880;28;20036;-77
2024/03/05 10:48:52;;;;;;;31.40;20.75;;;563.50;1510.40;;;;;;5032102;28;20056;-75
2024/03/05 10:51:29;;;;;;;35.03;22.73;;;563.50;1510.40;;;;;;5031998;28;20036;-77
2024/03/05 10:53:59;;;;;;;27.30;18.42;;;563.40;1510.40;;;;;;5032703;28;20030;-75
2024/03/05 10:56:29;;;;;;;28.02;18.35;;;;;;;;;;5032573;28;20827;-76
2024/03/05 11:01:40;;;;;;;34.33;21.05;;;537.70;1817.60;;;;;;5032268;28;20076;-74
2024/03/05 11:04:22;;;;;;;22.85;16.48;;;537.90;1561.60;;;;;;5032874;28;20028;-76
2024/03/05 11:06:52;;;;;;;21.67;15.55;;;538.20;1484.80;;;;;;5008085;28;20022;-76
2024/03/05 11:09:20;;;;;;;26.98;16.70;;;563.70;1510.40;;;;;;5042860;28;20040;-76
2024/03/05 11:11:52;;;;;;;24.25;16.83;;;563.90;1459.20;;;;;;5008362;28;20115;-75
2024/03/05 11:14:19;;;;;;;26.58;16.88;;;564.00;1484.80;;;;;;5031214;28;20036;-77
2024/03/05 11:17:12;;;;;;;24.50;15.90;;;588.90;1459.20;;;;;;5036982;28;20098;-77
2024/03/05 11:19:44;;;;;;;24.40;17.25;;;588.90;1459.20;;;;;;5022767;28;20450;-78
2024/03/05 11:22:26;;;;;;;23.95;16.48;;;589.40;1433.60;;;;;;5034925;28;20117;-75
2024/03/05 11:25:05;;;;;;;26.45;15.90;;;589.60;1459.20;;;;;;5022055;28;20507;-75
2024/03/05 11:27:34;;;;;;;24.80;15.45;;;589.60;1433.60;;;;;;5031226;28;20037;-74
2024/03/05 11:30:17;;;;;;;22.17;16.08;;;563.80;1510.40;;;;;;5026448;28;20048;-74
2024/03/05 11:32:44;;;;;;;29.27;20.13;;;588.90;1459.20;;;;;;5034690;28;20783;-73
2024/03/05 11:35:13;;;;;;;24.02;16.50;;;563.20;1510.40;;;;;;5031936;28;20100;-75
2024/03/05 11:37:55;;;;;;;23.75;15.38;;;563.60;1510.40;;;;;;5035511;28;20036;-73
2024/03/05 11:40:32;;;;;;;23.27;15.05;;;564.00;1510.40;;;;;;5026373;28;20061;-74
2024/03/05 11:42:58;;;;;;;23.33;15.68;;;563.90;1484.80;;;;;;5034284;28;20095;-75
2024/03/05 11:45:49;;;;;;;34.60;19.33;;;563.90;1459.20;;;;;;5035261;28;20049;-73
2024/03/05 11:48:18;;;;;;;24.08;15.55;;;563.50;1484.80;;;;;;5010727;28;20489;-76
2024/03/05 11:50:47;;;;;;;22.92;14.80;;;563.70;1510.40;;;;;;5006768;28;20378;-73
2024/03/05 11:53:16;;;;;;;23.83;15.05;;;563.60;1536.00;;;;;;4993864;28;20071;-76
2024/03/05 11:55:42;;;;;;;27.85;15.85;;;538.50;1484.80;;;;;;5005465;28;20038;-74
2024/03/05 11:58:09;;;;;;;21.10;15.23;;;563.20;1536.00;;;;;;4993239;28;20133;-73
2024/03/05 12:00:35;;;;;;;23.05;15.70;;;537.70;1536.00;;;;;;4997025;28;20103;-75
2024/03/05 12:03:06;;;;;;;28.52;15.55;;;537.70;1587.20;;;;;;4992077;28;20137;-77
2024/03/05 12:05:32;;;;;;;24.15;15.57;;;537.90;1536.00;;;;;;4993837;28;20046;-77
2024/03/05 12:08:03;;;;;;;27.55;19.40;;;537.70;1561.60;;;;;;4989283;28;20037;-75
2024/03/05 12:10:33;;;;;;;27.98;16.40;;;512.60;1587.20;;;;;;4987659;28;20066;-72
2024/03/05 12:12:59;;;;;;;36.95;23.73;;;537.70;1612.80;;;;;;4973438;28;21162;-71
2024/03/05 12:15:30;;;;;;;32.90;19.88;;;512.90;1561.60;;;;;;4973865;28;20049;-73
2024/03/05 12:17:56;;;;;;;46.13;26.55;;;;;;;;;;4973850;28;20069;-73
2024/03/05 12:20:23;;;;;;;28.85;18.60;;;;;;;;;;4986500;28;20450;-72
2024/03/05 12:23:07;;;;;;;26.20;17.70;;;;;;;;;;4999465;28;20034;-74
2024/03/05 12:25:33;;;;;;;38.40;23.70;;;512.30;1587.20;;;;;;5017131;28;20045;-75
2024/03/05 12:28:00;;;;;;;25.42;16.70;;;512.20;1612.80;;;;;;5014530;28;20288;-76
2024/03/05 12:30:35;;;;;;;22.17;15.95;;;512.50;1587.20;;;;;;5028062;28;20109;-76
2024/03/05 12:33:01;;;;;;;25.10;16.55;;;538.10;1587.20;;;;;;5030804;28;20041;-73
2024/03/05 12:35:30;;;;;;;23.00;16.40;;;538.30;1536.00;;;;;;5017183;28;20101;-75
2024/03/05 12:38:01;;;;;;;22.95;15.77;;;538.40;1536.00;;;;;;5013087;28;20029;-72
2024/03/05 12:40:30;;;;;;;23.95;16.35;;;563.50;1536.00;;;;;;5012444;28;20022;-74
2024/03/05 12:43:06;;;;;;;22.02;15.38;;;563.80;1510.40;;;;;;5010162;28;20041;-70